sensor_id;sensor_type;location;lat;lon;timestamp;pressure;altitude;pressure_sealevel;temperature;humidity
46095;BME280;31832;50.746;-2.716;2023-10-13T00:01:57;162802.45;;;14.59;100.00
46095;BME280;31832;50.746;-2.716;2023-10-13T00:04:22;162908.68;;;15.17;100.00
46095;BME280;31832;50.746;-2.716;2023-10-13T00:06:47;162920.04;;;14.99;100.00
46095;BME280;31832;50.746;-2.716;2023-10-13T00:09:12;162660.09;;;14.28;100.00
46095;BME280;31832;50.746;-2.716;2023-10-13T00:11:41;162782.57;;;14.72;100.00
46095;BME280;31832;50.746;-2.716;2023-10-13T00:14:03;162690.31;;;14.45;100.00
46095;BME280;31832;50.746;-2.716;2023-10-13T00:16:27;162610.09;;;14.01;100.00
46095;BME280;31832;50.746;-2.716;2023-10-13T00:18:53;162799.44;;;14.81;100.00
46095;BME280;31832;50.746;-2.716;2023-10-13T00:21:18;162766.20;;;14.63;100.00
46095;BME280;31832;50.746;-2.716;2023-10-13T00:23:44;162899.24;;;15.12;100.00
46095;BME280;31832;50.746;-2.716;2023-10-13T00:26:09;162825.08;;;14.95;100.00
46095;BME280;31832;50.746;-2.716;2023-10-13T00:28:35;162784.66;;;14.49;100.00
46095;BME280;31832;50.746;-2.716;2023-10-13T00:31:01;162770.96;;;14.89;100.00
46095;BME280;31832;50.746;-2.716;2023-10-13T00:33:26;162805.95;;;14.61;100.00
46095;BME280;31832;50.746;-2.716;2023-10-13T00:35:51;162865.58;;;15.17;100.00
46095;BME280;31832;50.746;-2.716;2023-10-13T00:38:17;162866.33;;;15.18;100.00
46095;BME280;31832;50.746;-2.716;2023-10-13T00:40:43;162879.70;;;15.25;100.00
46095;BME280;31832;50.746;-2.716;2023-10-13T00:43:08;162961.39;;;15.46;100.00
46095;BME280;31832;50.746;-2.716;2023-10-13T00:45:34;162734.14;;;14.69;100.00
46095;BME280;31832;50.746;-2.716;2023-10-13T00:47:59;162653.08;;;14.24;100.00
46095;BME280;31832;50.746;-2.716;2023-10-13T00:50:24;162830.92;;;14.74;100.00
46095;BME280;31832;50.746;-2.716;2023-10-13T00:52:50;162699.24;;;14.50;100.00
46095;BME280;31832;50.746;-2.716;2023-10-13T00:55:16;162876.69;;;15.23;100.00
46095;BME280;31832;50.746;-2.716;2023-10-13T00:57:41;162826.00;;;14.95;100.00
46095;BME280;31832;50.746;-2.716;2023-10-13T01:00:07;162800.78;;;15.05;100.00
46095;BME280;31832;50.746;-2.716;2023-10-13T01:02:32;162880.45;;;15.25;100.00
46095;BME280;31832;50.746;-2.716;2023-10-13T01:04:58;162760.86;;;14.60;100.00
46095;BME280;31832;50.746;-2.716;2023-10-13T01:07:23;162788.67;;;14.75;100.00
46095;BME280;31832;50.746;-2.716;2023-10-13T01:09:49;162768.46;;;14.88;100.00
46095;BME280;31832;50.746;-2.716;2023-10-13T01:12:16;162768.54;;;14.64;100.00
46095;BME280;31832;50.746;-2.716;2023-10-13T01:14:40;162700.91;;;14.51;100.00
46095;BME280;31832;50.746;-2.716;2023-10-13T01:17:06;162784.16;;;14.96;100.00
46095;BME280;31832;50.746;-2.716;2023-10-13T01:19:35;162744.16;;;14.74;100.00
46095;BME280;31832;50.746;-2.716;2023-10-13T01:21:56;162870.59;;;15.44;100.00
46095;BME280;31832;50.746;-2.716;2023-10-13T01:24:22;162964.15;;;15.23;100.00
46095;BME280;31832;50.746;-2.716;2023-10-13T01:26:47;162964.48;;;15.24;100.00
46095;BME280;31832;50.746;-2.716;2023-10-13T01:29:13;162968.32;;;15.50;100.00
46095;BME280;31832;50.746;-2.716;2023-10-13T01:31:39;162802.61;;;15.06;100.00
46095;BME280;31832;50.746;-2.716;2023-10-13T01:34:04;162890.64;;;15.31;100.00
46095;BME280;31832;50.746;-2.716;2023-10-13T01:36:29;162842.78;;;15.05;100.00
46095;BME280;31832;50.746;-2.716;2023-10-13T01:38:54;162836.43;;;15.25;100.00
46095;BME280;31832;50.746;-2.716;2023-10-13T01:41:21;162893.73;;;15.33;100.00
46095;BME280;31832;50.746;-2.716;2023-10-13T01:43:45;162732.31;;;14.92;100.00
46095;BME280;31832;50.746;-2.716;2023-10-13T01:46:11;162808.37;;;15.10;100.00
46095;BME280;31832;50.746;-2.716;2023-10-13T01:48:36;162846.29;;;15.07;100.00
46095;BME280;31832;50.746;-2.716;2023-10-13T01:51:01;162806.37;;;15.09;100.00
46095;BME280;31832;50.746;-2.716;2023-10-13T01:53:27;162822.57;;;15.17;100.00
46095;BME280;31832;50.746;-2.716;2023-10-13T01:55:53;162927.89;;;15.75;100.00
46095;BME280;31832;50.746;-2.716;2023-10-13T01:58:18;162910.10;;;15.65;100.00
46095;BME280;31832;50.746;-2.716;2023-10-13T02:00:45;162915.95;;;15.69;100.00
46095;BME280;31832;50.746;-2.716;2023-10-13T02:03:09;162917.12;;;15.69;100.00
46095;BME280;31832;50.746;-2.716;2023-10-13T02:05:33;162880.45;;;15.25;100.00
46095;BME280;31832;50.746;-2.716;2023-10-13T02:07:59;162891.56;;;15.55;100.00
46095;BME280;31832;50.746;-2.716;2023-10-13T02:10:24;162930.82;;;15.53;100.00
46095;BME280;31832;50.746;-2.716;2023-10-13T02:12:50;162829.25;;;15.21;100.00
46095;BME280;31832;50.746;-2.716;2023-10-13T02:15:16;162873.43;;;15.45;100.00
46095;BME280;31832;50.746;-2.716;2023-10-13T02:17:41;162818.31;;;15.15;100.00
46095;BME280;31832;50.746;-2.716;2023-10-13T02:20:08;162889.39;;;15.06;100.00
46095;BME280;31832;50.746;-2.716;2023-10-13T02:22:32;162839.44;;;15.27;100.00
46095;BME280;31832;50.746;-2.716;2023-10-13T02:24:58;162853.39;;;15.34;100.00
46095;BME280;31832;50.746;-2.716;2023-10-13T02:27:23;162926.97;;;15.27;100.00
46095;BME280;31832;50.746;-2.716;2023-10-13T02:29:49;163021.21;;;15.79;100.00
46095;BME280;31832;50.746;-2.716;2023-10-13T02:32:15;162818.48;;;14.91;100.00
46095;BME280;31832;50.746;-2.716;2023-10-13T02:34:40;162774.30;;;15.15;100.00
46095;BME280;31832;50.746;-2.716;2023-10-13T02:37:05;162742.16;;;15.21;100.00
46095;BME280;31832;50.746;-2.716;2023-10-13T02:39:31;162687.56;;;15.15;100.00
46095;BME280;31832;50.746;-2.716;2023-10-13T02:41:56;162741.32;;;15.21;100.00
46095;BME280;31832;50.746;-2.716;2023-10-13T02:44:22;162705.42;;;15.01;100.00
46095;BME280;31832;50.746;-2.716;2023-10-13T02:46:47;162795.60;;;15.27;100.00
46095;BME280;31832;50.746;-2.716;2023-10-13T02:49:12;162772.88;;;15.38;100.00
46095;BME280;31832;50.746;-2.716;2023-10-13T02:51:38;162882.20;;;15.50;100.00
46095;BME280;31832;50.746;-2.716;2023-10-13T02:54:04;162759.94;;;15.31;100.00
46095;BME280;31832;50.746;-2.716;2023-10-13T02:56:28;162728.88;;;15.14;100.00
46095;BME280;31832;50.746;-2.716;2023-10-13T02:58:53;162741.41;;;15.21;100.00
46095;BME280;31832;50.746;-2.716;2023-10-13T03:01:20;162842.28;;;15.28;100.00
46095;BME280;31832;50.746;-2.716;2023-10-13T03:03:47;162937.00;;;15.80;100.00
46095;BME280;31832;50.746;-2.716;2023-10-13T03:06:10;162896.07;;;15.58;100.00
46095;BME280;31832;50.746;-2.716;2023-10-13T03:08:36;162956.30;;;15.43;100.00
46095;BME280;31832;50.746;-2.716;2023-10-13T03:11:01;162873.77;;;15.46;100.00
46095;BME280;31832;50.746;-2.716;2023-10-13T03:13:26;162909.77;;;15.41;100.00
46095;BME280;31832;50.746;-2.716;2023-10-13T03:15:52;162837.60;;;15.26;100.00
46095;BME280;31832;50.746;-2.716;2023-10-13T03:18:17;162828.50;;;15.45;100.00
46095;BME280;31832;50.746;-2.716;2023-10-13T03:20:42;162895.65;;;15.58;100.00
46095;BME280;31832;50.746;-2.716;2023-10-13T03:23:08;162872.76;;;15.21;100.00
46095;BME280;31832;50.746;-2.716;2023-10-13T03:25:34;162968.49;;;15.98;100.00
46095;BME280;31832;50.746;-2.716;2023-10-13T03:27:59;163011.43;;;16.21;100.00
46095;BME280;31832;50.746;-2.716;2023-10-13T03:30:24;162949.53;;;15.63;100.00
46095;BME280;31832;50.746;-2.716;2023-10-13T03:32:50;162894.48;;;15.57;100.00
46095;BME280;31832;50.746;-2.716;2023-10-13T03:35:15;162944.52;;;15.84;100.00
46095;BME280;31832;50.746;-2.716;2023-10-13T03:37:41;162925.47;;;15.50;100.00
46095;BME280;31832;50.746;-2.716;2023-10-13T03:40:08;162954.54;;;15.90;100.00
46095;BME280;31832;50.746;-2.716;2023-10-13T03:42:31;162947.86;;;15.86;100.00
46095;BME280;31832;50.746;-2.716;2023-10-13T03:44:56;162925.80;;;15.74;100.00
46095;BME280;31832;50.746;-2.716;2023-10-13T03:47:22;162981.27;;;16.05;100.00
46095;BME280;31832;50.746;-2.716;2023-10-13T03:49:47;162918.70;;;15.46;100.00
46095;BME280;31832;50.746;-2.716;2023-10-13T03:52:13;162962.81;;;15.94;100.00
46095;BME280;31832;50.746;-2.716;2023-10-13T03:54:38;162995.31;;;16.12;100.00
46095;BME280;31832;50.746;-2.716;2023-10-13T03:57:03;162922.55;;;15.72;100.00
46095;BME280;31832;50.746;-2.716;2023-10-13T03:59:29;163020.29;;;16.02;100.00
46095;BME280;31832;50.746;-2.716;2023-10-13T04:01:54;162951.12;;;15.88;100.00
46095;BME280;31832;50.746;-2.716;2023-10-13T04:04:20;162859.07;;;15.61;100.00
46095;BME280;31832;50.746;-2.716;2023-10-13T04:06:46;162938.92;;;16.29;100.00
46095;BME280;31832;50.746;-2.716;2023-10-13T04:09:14;162856.48;;;15.84;100.00
46095;BME280;31832;50.746;-2.716;2023-10-13T04:11:36;162798.19;;;15.52;100.00
46095;BME280;31832;50.746;-2.716;2023-10-13T04:14:02;162863.33;;;15.40;100.00
46095;BME280;31832;50.746;-2.716;2023-10-13T04:16:27;162878.53;;;15.72;100.00
46095;BME280;31832;50.746;-2.716;2023-10-13T04:18:52;162940.59;;;16.06;100.00
46095;BME280;31832;50.746;-2.716;2023-10-13T04:21:18;162879.28;;;15.72;100.00
46095;BME280;31832;50.746;-2.716;2023-10-13T04:23:43;162935.49;;;16.27;100.00
46095;BME280;31832;50.746;-2.716;2023-10-13T04:26:08;162979.19;;;16.03;100.00
46095;BME280;31832;50.746;-2.716;2023-10-13T04:28:34;162902.17;;;16.09;100.00
46095;BME280;31832;50.746;-2.716;2023-10-13T04:30:59;162989.63;;;16.57;100.00
46095;BME280;31832;50.746;-2.716;2023-10-13T04:33:26;163002.41;;;16.16;100.00
46095;BME280;31832;50.746;-2.716;2023-10-13T04:35:50;162917.37;;;15.93;100.00
46095;BME280;31832;50.746;-2.716;2023-10-13T04:38:16;163024.80;;;16.52;100.00
46095;BME280;31832;50.746;-2.716;2023-10-13T04:40:41;162972.25;;;16.47;100.00
46095;BME280;31832;50.746;-2.716;2023-10-13T04:43:06;162947.27;;;15.86;100.00
46095;BME280;31832;50.746;-2.716;2023-10-13T04:45:31;162983.20;;;16.06;100.00
46095;BME280;31832;50.746;-2.716;2023-10-13T04:47:58;163019.62;;;16.26;100.00
46095;BME280;31832;50.746;-2.716;2023-10-13T04:50:23;162923.63;;;15.73;100.00
46095;BME280;31832;50.746;-2.716;2023-10-13T04:52:48;163017.78;;;16.25;100.00
46095;BME280;31832;50.746;-2.716;2023-10-13T04:55:13;163020.12;;;16.26;100.00
46095;BME280;31832;50.746;-2.716;2023-10-13T04:57:39;163049.45;;;16.66;100.00
46095;BME280;31832;50.746;-2.716;2023-10-13T05:00:06;163003.08;;;16.17;100.00
46095;BME280;31832;50.746;-2.716;2023-10-13T05:02:30;162958.88;;;16.16;100.00
46095;BME280;31832;50.746;-2.716;2023-10-13T05:04:56;163052.13;;;16.67;100.00
46095;BME280;31832;50.746;-2.716;2023-10-13T05:07:21;163064.99;;;16.50;100.00
46095;BME280;31832;50.746;-2.716;2023-10-13T05:09:46;163084.30;;;16.61;100.00
46095;BME280;31832;50.746;-2.716;2023-10-13T05:12:11;163147.81;;;16.72;100.00
46095;BME280;31832;50.746;-2.716;2023-10-13T05:14:36;163180.99;;;16.90;100.00
46095;BME280;31832;50.746;-2.716;2023-10-13T05:17:02;163041.18;;;16.37;100.00
46095;BME280;31832;50.746;-2.716;2023-10-13T05:19:27;163069.00;;;16.53;100.00
46095;BME280;31832;50.746;-2.716;2023-10-13T05:21:53;163032.57;;;16.09;100.00
46095;BME280;31832;50.746;-2.716;2023-10-13T05:24:19;162952.37;;;16.37;100.00
46095;BME280;31832;50.746;-2.716;2023-10-13T05:26:44;162981.69;;;16.05;100.00
46095;BME280;31832;50.746;-2.716;2023-10-13T05:29:10;162885.46;;;15.76;100.00
46095;BME280;31832;50.746;-2.716;2023-10-13T05:31:35;162999.24;;;16.14;100.00
46095;BME280;31832;50.746;-2.716;2023-10-13T05:34:01;163057.56;;;16.23;100.00
46095;BME280;31832;50.746;-2.716;2023-10-13T05:36:26;162976.09;;;16.02;100.00
46095;BME280;31832;50.746;-2.716;2023-10-13T05:38:52;163208.57;;;16.81;100.00
46095;BME280;31832;50.746;-2.716;2023-10-13T05:41:17;163304.29;;;17.34;100.00
46095;BME280;31832;50.746;-2.716;2023-10-13T05:43:43;163274.62;;;17.18;100.00
46095;BME280;31832;50.746;-2.716;2023-10-13T05:46:08;163088.06;;;16.39;100.00
46095;BME280;31832;50.746;-2.716;2023-10-13T05:48:34;163075.10;;;16.32;100.00
46095;BME280;31832;50.746;-2.716;2023-10-13T05:51:00;162947.69;;;15.86;100.00
46095;BME280;31832;50.746;-2.716;2023-10-13T05:53:25;163004.00;;;15.93;100.00
46095;BME280;31832;50.746;-2.716;2023-10-13T05:55:50;162853.64;;;15.35;100.00
46095;BME280;31832;50.746;-2.716;2023-10-13T05:58:16;163211.08;;;16.83;100.00
46095;BME280;31832;50.746;-2.716;2023-10-13T06:00:42;163143.55;;;16.46;100.00
46095;BME280;31832;50.746;-2.716;2023-10-13T06:03:07;163106.61;;;16.49;100.00
46095;BME280;31832;50.746;-2.716;2023-10-13T06:05:32;162988.12;;;15.84;100.00
46095;BME280;31832;50.746;-2.716;2023-10-13T06:07:58;163094.91;;;16.19;100.00
46095;BME280;31832;50.746;-2.716;2023-10-13T06:10:23;162885.96;;;15.52;100.00
46095;BME280;31832;50.746;-2.716;2023-10-13T06:12:48;162949.45;;;15.39;100.00
46095;BME280;31832;50.746;-2.716;2023-10-13T06:15:14;162871.93;;;15.45;100.00
46095;BME280;31832;50.746;-2.716;2023-10-13T06:17:39;162877.53;;;15.48;100.00
46095;BME280;31832;50.746;-2.716;2023-10-13T06:20:06;162861.74;;;15.39;100.00
46095;BME280;31832;50.746;-2.716;2023-10-13T06:22:30;162780.32;;;15.42;100.00
46095;BME280;31832;50.746;-2.716;2023-10-13T06:24:57;162881.62;;;15.50;100.00
46095;BME280;31832;50.746;-2.716;2023-10-13T06:27:21;162902.17;;;15.37;100.00
46095;BME280;31832;50.746;-2.716;2023-10-13T06:29:47;162908.51;;;15.65;100.00
46095;BME280;31832;50.746;-2.716;2023-10-13T06:32:13;162880.70;;;15.49;100.00
46095;BME280;31832;50.746;-2.716;2023-10-13T06:34:38;162942.60;;;15.83;100.00
46095;BME280;31832;50.746;-2.716;2023-10-13T06:37:04;162839.78;;;15.51;100.00
46095;BME280;31832;50.746;-2.716;2023-10-13T06:39:29;162903.00;;;16.09;100.00
46095;BME280;31832;50.746;-2.716;2023-10-13T06:41:55;162835.18;;;15.72;100.00
46095;BME280;31832;50.746;-2.716;2023-10-13T06:44:21;162757.94;;;15.30;100.00
46095;BME280;31832;50.746;-2.716;2023-10-13T06:46:47;162826.75;;;15.68;100.00
46095;BME280;31832;50.746;-2.716;2023-10-13T06:49:12;162878.61;;;15.72;100.00
46095;BME280;31832;50.746;-2.716;2023-10-13T06:51:37;162800.94;;;15.29;100.00
46095;BME280;31832;50.746;-2.716;2023-10-13T06:54:03;162805.20;;;15.56;100.00
46095;BME280;31832;50.746;-2.716;2023-10-13T06:56:29;162828.17;;;15.44;100.00
46095;BME280;31832;50.746;-2.716;2023-10-13T06:58:54;162889.97;;;16.02;100.00
46095;BME280;31832;50.746;-2.716;2023-10-13T07:01:19;162817.64;;;15.15;100.00
46095;BME280;31832;50.746;-2.716;2023-10-13T07:03:45;162741.24;;;14.97;100.00
46095;BME280;31832;50.746;-2.716;2023-10-13T07:06:10;162869.84;;;15.43;100.00
46095;BME280;31832;50.746;-2.716;2023-10-13T07:08:35;162889.22;;;15.54;100.00
46095;BME280;31832;50.746;-2.716;2023-10-13T07:11:00;162850.97;;;15.81;100.00
46095;BME280;31832;50.746;-2.716;2023-10-13T07:13:26;162821.65;;;15.41;100.00
46095;BME280;31832;50.746;-2.716;2023-10-13T07:15:52;162892.48;;;15.56;100.00
46095;BME280;31832;50.746;-2.716;2023-10-13T07:18:17;163031.49;;;16.32;100.00
46095;BME280;31832;50.746;-2.716;2023-10-13T07:20:42;163067.58;;;16.04;100.00
46095;BME280;31832;50.746;-2.716;2023-10-13T07:23:08;163062.15;;;16.01;100.00
46095;BME280;31832;50.746;-2.716;2023-10-13T07:25:33;163026.22;;;16.05;100.00
46095;BME280;31832;50.746;-2.716;2023-10-13T07:27:59;162893.40;;;15.56;100.00
46095;BME280;31832;50.746;-2.716;2023-10-13T07:30:24;162775.47;;;15.39;100.00
46095;BME280;31832;50.746;-2.716;2023-10-13T07:32:49;162857.31;;;15.37;100.00
46095;BME280;31832;50.746;-2.716;2023-10-13T07:35:16;162832.76;;;15.47;100.00
46095;BME280;31832;50.746;-2.716;2023-10-13T07:37:40;162851.05;;;15.81;100.00
46095;BME280;31832;50.746;-2.716;2023-10-13T07:40:07;162874.77;;;15.46;100.00
46095;BME280;31832;50.746;-2.716;2023-10-13T07:42:31;162928.90;;;15.76;100.00
46095;BME280;31832;50.746;-2.716;2023-10-13T07:44:58;162871.09;;;15.68;100.00
46095;BME280;31832;50.746;-2.716;2023-10-13T07:47:21;162762.28;;;15.32;100.00
46095;BME280;31832;50.746;-2.716;2023-10-13T07:49:46;162798.02;;;15.52;100.00
46095;BME280;31832;50.746;-2.716;2023-10-13T07:52:12;162914.86;;;15.68;100.00
46095;BME280;31832;50.746;-2.716;2023-10-13T07:54:37;162854.98;;;15.83;100.00
46095;BME280;31832;50.746;-2.716;2023-10-13T07:57:02;162841.19;;;15.52;100.00
46095;BME280;31832;50.746;-2.716;2023-10-13T07:59:28;162783.24;;;15.44;100.00
46095;BME280;31832;50.746;-2.716;2023-10-13T08:01:53;162850.88;;;15.57;100.00
46095;BME280;31832;50.746;-2.716;2023-10-13T08:04:19;162697.74;;;14.97;100.00
46095;BME280;31832;50.746;-2.716;2023-10-13T08:06:44;162826.00;;;15.67;100.00
46095;BME280;31832;50.746;-2.716;2023-10-13T08:09:10;162676.03;;;14.85;100.00
46095;BME280;31832;50.746;-2.716;2023-10-13T08:11:36;162844.45;;;15.53;100.00
46095;BME280;31832;50.746;-2.716;2023-10-13T08:14:02;162940.42;;;16.06;100.00
46095;BME280;31832;50.746;-2.716;2023-10-13T08:16:29;163081.96;;;16.36;100.00
46095;BME280;31832;50.746;-2.716;2023-10-13T08:18:53;162956.13;;;15.91;100.00
46095;BME280;31832;50.746;-2.716;2023-10-13T08:21:18;162905.67;;;15.63;100.00
46095;BME280;31832;50.746;-2.716;2023-10-13T08:23:43;162942.43;;;15.83;100.00
46095;BME280;31832;50.746;-2.716;2023-10-13T08:26:10;162765.45;;;15.10;100.00
46095;BME280;31832;50.746;-2.716;2023-10-13T08:28:35;162904.00;;;15.62;100.00
46095;BME280;31832;50.746;-2.716;2023-10-13T08:31:04;162923.05;;;15.73;100.00
46095;BME280;31832;50.746;-2.716;2023-10-13T08:33:25;163001.41;;;16.16;100.00
46095;BME280;31832;50.746;-2.716;2023-10-13T08:35:50;162925.80;;;16.22;100.00
46095;BME280;31832;50.746;-2.716;2023-10-13T08:38:15;162958.22;;;15.92;100.00
46095;BME280;31832;50.746;-2.716;2023-10-13T08:40:44;162905.42;;;15.39;100.00
46095;BME280;31832;50.746;-2.716;2023-10-13T08:43:06;162957.63;;;15.92;100.00
46095;BME280;31832;50.746;-2.716;2023-10-13T08:45:36;162990.88;;;16.10;100.00
46095;BME280;31832;50.746;-2.716;2023-10-13T08:47:58;162929.65;;;16.24;100.00
46095;BME280;31832;50.746;-2.716;2023-10-13T08:50:23;163016.95;;;16.24;100.00
46095;BME280;31832;50.746;-2.716;2023-10-13T08:52:48;162961.81;;;15.70;100.00
46095;BME280;31832;50.746;-2.716;2023-10-13T08:55:14;162999.57;;;16.39;100.00
46095;BME280;31832;50.746;-2.716;2023-10-13T08:57:39;163067.33;;;16.28;100.00
46095;BME280;31832;50.746;-2.716;2023-10-13T09:00:09;163044.35;;;16.15;100.00
46095;BME280;31832;50.746;-2.716;2023-10-13T09:02:29;163245.52;;;16.78;100.00
46095;BME280;31832;50.746;-2.716;2023-10-13T09:04:55;163134.02;;;16.64;100.00
46095;BME280;31832;50.746;-2.716;2023-10-13T09:07:20;162993.89;;;15.64;100.00
46095;BME280;31832;50.746;-2.716;2023-10-13T09:09:46;163101.93;;;16.47;100.00
46095;BME280;31832;50.746;-2.716;2023-10-13T09:12:11;162981.69;;;15.81;100.00
46095;BME280;31832;50.746;-2.716;2023-10-13T09:14:37;163140.54;;;16.44;100.00
46095;BME280;31832;50.746;-2.716;2023-10-13T09:17:05;163154.91;;;16.28;100.00
46095;BME280;31832;50.746;-2.716;2023-10-13T09:19:27;163315.33;;;17.40;100.00
46095;BME280;31832;50.746;-2.716;2023-10-13T09:21:53;163302.46;;;17.09;100.00
46095;BME280;31832;50.746;-2.716;2023-10-13T09:24:18;163168.29;;;16.59;100.00
46095;BME280;31832;50.746;-2.716;2023-10-13T09:26:44;163343.34;;;17.08;100.00
46095;BME280;31832;50.746;-2.716;2023-10-13T09:29:21;163030.73;;;15.84;100.00
46095;BME280;31832;50.746;-2.716;2023-10-13T09:31:34;163105.19;;;16.49;100.00
46095;BME280;31832;50.746;-2.716;2023-10-13T09:34:00;163274.36;;;17.18;100.00
46095;BME280;31832;50.746;-2.716;2023-10-13T09:36:26;163064.91;;;16.03;100.00
46095;BME280;31832;50.746;-2.716;2023-10-13T09:38:51;162969.33;;;15.26;100.00
46095;BME280;31832;50.746;-2.716;2023-10-13T09:41:17;162999.57;;;15.91;100.00
46095;BME280;31832;50.746;-2.716;2023-10-13T09:43:42;163011.02;;;15.73;100.00
46095;BME280;31832;50.746;-2.716;2023-10-13T09:46:08;163028.48;;;15.83;100.00
46095;BME280;31832;50.746;-2.716;2023-10-13T09:48:36;163252.88;;;17.06;100.00
46095;BME280;31832;50.746;-2.716;2023-10-13T09:51:01;163424.37;;;17.52;100.00
46095;BME280;31832;50.746;-2.716;2023-10-13T09:53:24;163231.48;;;16.70;100.00
46095;BME280;31832;50.746;-2.716;2023-10-13T09:55:55;163196.71;;;16.51;100.00
46095;BME280;31832;50.746;-2.716;2023-10-13T09:58:17;163255.89;;;16.83;100.00
46095;BME280;31832;50.746;-2.716;2023-10-13T10:00:44;163224.54;;;17.14;100.00
46095;BME280;31832;50.746;-2.716;2023-10-13T10:03:07;163181.33;;;16.66;100.00
46095;BME280;31832;50.746;-2.716;2023-10-13T10:05:32;163257.56;;;17.08;100.00
46095;BME280;31832;50.746;-2.716;2023-10-13T10:07:58;163159.85;;;16.55;100.00
46095;BME280;31832;50.746;-2.716;2023-10-13T10:10:26;163290.25;;;17.26;100.00
46095;BME280;31832;50.746;-2.716;2023-10-13T10:12:52;163183.16;;;16.67;100.00
46095;BME280;31832;50.746;-2.716;2023-10-13T10:15:23;163282.47;;;16.98;100.00
46095;BME280;31832;50.746;-2.716;2023-10-13T10:17:41;163176.81;;;16.64;100.00
46095;BME280;31832;50.746;-2.716;2023-10-13T10:20:06;163250.87;;;17.05;100.00
46095;BME280;31832;50.746;-2.716;2023-10-13T10:22:32;163198.71;;;17.00;100.00
46095;BME280;31832;50.746;-2.716;2023-10-13T10:24:56;163186.01;;;16.93;100.00
46095;BME280;31832;50.746;-2.716;2023-10-13T10:27:24;163276.54;;;17.19;100.00
46095;BME280;31832;50.746;-2.716;2023-10-13T10:29:52;163037.42;;;15.88;100.00
46095;BME280;31832;50.746;-2.716;2023-10-13T10:32:14;163360.98;;;17.65;100.00
46095;BME280;31832;50.746;-2.716;2023-10-13T10:34:37;163296.60;;;17.30;100.00
46095;BME280;31832;50.746;-2.716;2023-10-13T10:37:03;163276.45;;;16.95;100.00
46095;BME280;31832;50.746;-2.716;2023-10-13T10:39:34;163271.35;;;17.16;100.00
46095;BME280;31832;50.746;-2.716;2023-10-13T10:41:54;163219.11;;;16.87;100.00
46095;BME280;31832;50.746;-2.716;2023-10-13T10:44:20;163211.58;;;16.83;100.00
46095;BME280;31832;50.746;-2.716;2023-10-13T10:46:45;163102.43;;;16.47;100.00
46095;BME280;31832;50.746;-2.716;2023-10-13T10:49:11;163124.58;;;16.59;100.00
46095;BME280;31832;50.746;-2.716;2023-10-13T10:51:42;163141.63;;;16.69;100.00
46095;BME280;31832;50.746;-2.716;2023-10-13T10:54:02;163201.64;;;17.02;100.00
46095;BME280;31832;50.746;-2.716;2023-10-13T10:56:27;163278.29;;;17.20;100.00
46095;BME280;31832;50.746;-2.716;2023-10-13T10:58:55;163432.07;;;17.56;100.00
46095;BME280;31832;50.746;-2.716;2023-10-13T11:01:16;163361.24;;;17.17;100.00
46095;BME280;31832;50.746;-2.716;2023-10-13T11:03:53;163250.79;;;16.81;100.00
46095;BME280;31832;50.746;-2.716;2023-10-13T11:06:11;163266.17;;;16.65;100.00
46095;BME280;31832;50.746;-2.716;2023-10-13T11:08:32;163320.35;;;17.43;100.00
46095;BME280;31832;50.746;-2.716;2023-10-13T11:10:58;163229.22;;;17.17;100.00
46095;BME280;31832;50.746;-2.716;2023-10-13T11:13:23;163333.73;;;17.26;100.00
46095;BME280;31832;50.746;-2.716;2023-10-13T11:15:48;163142.80;;;16.21;100.00
46095;BME280;31832;50.746;-2.716;2023-10-13T11:18:14;163085.80;;;15.90;100.00
46095;BME280;31832;50.746;-2.716;2023-10-13T11:20:42;163300.28;;;17.32;100.00
46095;BME280;31832;50.746;-2.716;2023-10-13T11:23:15;163032.41;;;15.85;100.00
46095;BME280;31832;50.746;-2.716;2023-10-13T11:25:31;163236.33;;;16.97;100.00
46095;BME280;31832;50.746;-2.716;2023-10-13T11:27:56;163415.59;;;17.47;100.00
46095;BME280;31832;50.746;-2.716;2023-10-13T11:30:22;163340.33;;;17.06;100.00
46095;BME280;31832;50.746;-2.716;2023-10-13T11:32:56;163161.18;;;16.32;100.00
46095;BME280;31832;50.746;-2.716;2023-10-13T11:35:12;163163.27;;;16.57;100.00
46095;BME280;31832;50.746;-2.716;2023-10-13T11:37:37;163176.81;;;16.64;100.00
46095;BME280;31832;50.746;-2.716;2023-10-13T11:40:04;163128.34;;;16.37;100.00
46095;BME280;31832;50.746;-2.716;2023-10-13T11:42:28;163262.16;;;16.87;100.00
46095;BME280;31832;50.746;-2.716;2023-10-13T11:44:53;163350.11;;;17.59;100.00
46095;BME280;31832;50.746;-2.716;2023-10-13T11:47:18;163166.11;;;16.58;100.00
46095;BME280;31832;50.746;-2.716;2023-10-13T11:49:44;163219.86;;;16.88;100.00
46095;BME280;31832;50.746;-2.716;2023-10-13T11:52:09;163215.18;;;16.85;100.00
46095;BME280;31832;50.746;-2.716;2023-10-13T11:54:35;163274.36;;;17.18;100.00
46095;BME280;31832;50.746;-2.716;2023-10-13T11:57:00;163545.99;;;18.19;100.00
46095;BME280;31832;50.746;-2.716;2023-10-13T11:59:25;163250.45;;;16.80;100.00
46095;BME280;31832;50.746;-2.716;2023-10-13T12:01:51;162979.44;;;15.80;100.00
46095;BME280;31832;50.746;-2.716;2023-10-13T12:04:16;162871.35;;;15.44;100.00
46095;BME280;31832;50.746;-2.716;2023-10-13T12:06:42;163046.44;;;15.92;100.00
46095;BME280;31832;50.746;-2.716;2023-10-13T12:09:08;163142.88;;;16.45;100.00
46095;BME280;31832;50.746;-2.716;2023-10-13T12:11:32;163007.84;;;15.95;100.00
46095;BME280;31832;50.746;-2.716;2023-10-13T12:13:58;163172.63;;;16.62;100.00
46095;BME280;31832;50.746;-2.716;2023-10-13T12:16:23;163038.51;;;16.36;100.00
46095;BME280;31832;50.746;-2.716;2023-10-13T12:18:49;163211.17;;;16.83;100.00
46095;BME280;31832;50.746;-2.716;2023-10-13T12:21:15;162939.59;;;15.82;100.00